Time;durP1;ratioP1;P1;durP2;ratioP2;P2;SDS_P1;SDS_P2;PMS_P1;PMS_P2;Temp;Humidity;BMP_temperature;BMP_pressure;BME280_temperature;BME280_humidity;BME280_pressure;Samples;Min_cycle;Max_cycle;Signal;HPM_P1;HPM_P2
2023/08/24 00:00:53;;;;;;;14.52;9.13;;;14.20;99.90;;;;;;5015798;28;20156;-65
2023/08/24 00:03:21;;;;;;;16.90;9.38;;;14.30;99.90;;;;;;5033299;28;20032;-65
2023/08/24 00:05:47;;;;;;;17.02;9.95;;;14.20;99.90;;;;;;4999456;28;20029;-65
2023/08/24 00:08:13;;;;;;;14.40;9.88;;;14.20;99.90;;;;;;5033248;28;20045;-65
2023/08/24 00:10:39;;;;;;;16.92;10.48;;;14.20;99.90;;;;;;5016420;28;20142;-66
2023/08/24 00:13:05;;;;;;;13.48;9.90;;;14.20;99.90;;;;;;5015826;28;20518;-66
2023/08/24 00:15:31;;;;;;;14.80;10.27;;;14.10;99.90;;;;;;5033626;28;20033;-65
2023/08/24 00:17:56;;;;;;;14.95;9.77;;;14.00;99.90;;;;;;5015533;28;20136;-65
2023/08/24 00:20:22;;;;;;;13.27;9.50;;;14.00;99.90;;;;;;5015528;28;20052;-65
2023/08/24 00:22:48;;;;;;;13.85;9.85;;;14.00;99.90;;;;;;5015631;28;20041;-65
2023/08/24 00:25:14;;;;;;;12.95;9.68;;;14.00;99.90;;;;;;5015592;28;20563;-65
2023/08/24 00:27:40;;;;;;;15.45;9.65;;;14.00;99.90;;;;;;5033945;28;20241;-65
2023/08/24 00:30:07;;;;;;;16.40;10.48;;;14.00;99.90;;;;;;5015440;28;20567;-66
2023/08/24 00:32:34;;;;;;;11.73;8.50;;;14.00;99.90;;;;;;5015777;28;20033;-66
2023/08/24 00:35:01;;;;;;;12.82;9.07;;;13.90;99.90;;;;;;5032821;28;20028;-66
2023/08/24 00:37:28;;;;;;;14.50;9.15;;;14.00;99.90;;;;;;5015406;28;20055;-67
2023/08/24 00:39:55;;;;;;;20.17;9.82;;;13.90;99.90;;;;;;4999521;28;20287;-66
2023/08/24 00:42:22;;;;;;;17.05;10.10;;;14.00;99.90;;;;;;5033788;28;20231;-66
2023/08/24 00:44:48;;;;;;;15.73;9.48;;;14.10;99.90;;;;;;5015110;28;20049;-65
2023/08/24 00:47:15;;;;;;;15.13;10.43;;;14.10;99.90;;;;;;5015032;28;20049;-66
2023/08/24 00:49:41;;;;;;;12.55;9.02;;;14.20;99.90;;;;;;4998491;28;20120;-65
2023/08/24 00:52:09;;;;;;;17.63;10.90;;;14.20;99.90;;;;;;5014111;28;20045;-66
2023/08/24 00:54:36;;;;;;;17.52;10.18;;;14.10;99.90;;;;;;5015018;28;20056;-66
2023/08/24 00:57:02;;;;;;;19.48;10.05;;;14.20;99.90;;;;;;5032775;28;20076;-66
2023/08/24 00:59:28;;;;;;;16.52;10.18;;;14.20;85.40;;;;;;4994099;28;20658;-66
2023/08/24 01:01:55;;;;;;;16.65;10.60;;;14.20;99.90;;;;;;5012240;28;20080;-65
2023/08/24 01:04:20;;;;;;;14.63;10.32;;;14.30;99.90;;;;;;5012667;28;20041;-65
2023/08/24 01:06:46;;;;;;;18.10;10.77;;;14.30;99.90;;;;;;4982908;28;20037;-66
2023/08/24 01:09:12;;;;;;;16.00;9.88;;;14.40;99.90;;;;;;4995174;28;20046;-66
2023/08/24 01:12:02;;;;;;;16.95;10.13;;;14.40;99.90;;;;;;4995703;28;20056;-65
2023/08/24 01:14:51;;;;;;;18.52;9.50;;;14.40;99.90;;;;;;5012517;28;20495;-65
2023/08/24 01:17:24;;;;;;;16.70;9.82;;;14.40;99.90;;;;;;5012869;28;20045;-66
2023/08/24 01:19:51;;;;;;;18.67;10.20;;;14.40;99.90;;;;;;5010730;28;20048;-66
2023/08/24 01:22:22;;;;;;;19.60;10.20;;;14.50;99.90;;;;;;4978057;28;20103;-66
2023/08/24 01:24:59;;;;;;;15.60;9.98;;;14.50;99.90;;;;;;5012870;28;20041;-66
2023/08/24 01:27:26;;;;;;;17.13;9.30;;;14.40;99.90;;;;;;5010944;28;20042;-65
2023/08/24 01:29:56;;;;;;;15.77;9.13;;;14.50;99.90;;;;;;4994192;28;20087;-65
2023/08/24 01:32:22;;;;;;;13.40;9.82;;;14.60;99.90;;;;;;5011430;28;20164;-65
2023/08/24 01:34:48;;;;;;;15.30;9.27;;;14.50;99.90;;;;;;4995966;28;20041;-65
2023/08/24 01:37:13;;;;;;;16.33;11.02;;;14.60;99.90;;;;;;5010393;28;20045;-65
2023/08/24 01:40:09;;;;;;;17.73;11.30;;;14.70;99.90;;;;;;4994662;28;20049;-65
2023/08/24 01:42:42;;;;;;;18.48;10.93;;;14.70;99.90;;;;;;5010983;28;20056;-65
2023/08/24 01:45:09;;;;;;;16.00;10.02;;;14.70;99.90;;;;;;5010387;28;20620;-65
2023/08/24 01:47:37;;;;;;;14.50;10.75;;;14.60;99.90;;;;;;4994922;28;20107;-65
2023/08/24 01:50:04;;;;;;;12.60;9.38;;;14.70;99.90;;;;;;5009793;28;20117;-65
2023/08/24 01:52:32;;;;;;;14.40;9.80;;;14.60;99.90;;;;;;5009673;28;20049;-65
2023/08/24 01:54:57;;;;;;;12.65;8.95;;;14.70;99.90;;;;;;5010347;28;20083;-65
2023/08/24 01:57:23;;;;;;;13.20;8.82;;;14.70;99.90;;;;;;5012206;28;20148;-64
2023/08/24 01:59:49;;;;;;;16.10;10.55;;;14.70;99.90;;;;;;4978359;28;20061;-64
2023/08/24 02:02:14;;;;;;;20.45;10.75;;;14.70;99.90;;;;;;5010364;28;20056;-65
2023/08/24 02:04:40;;;;;;;15.95;9.32;;;14.60;99.90;;;;;;5011213;28;20164;-64
2023/08/24 02:07:07;;;;;;;15.38;10.00;;;14.70;99.90;;;;;;5009556;28;20390;-66
2023/08/24 02:09:32;;;;;;;14.05;9.43;;;14.60;99.90;;;;;;5010010;28;20041;-66
2023/08/24 02:11:58;;;;;;;15.55;9.68;;;14.70;99.90;;;;;;5009996;28;20049;-66
2023/08/24 02:14:24;;;;;;;14.93;10.70;;;14.60;99.90;;;;;;5012310;28;20038;-66
2023/08/24 02:16:49;;;;;;;13.90;10.07;;;14.70;99.90;;;;;;4993892;28;20741;-66
2023/08/24 02:19:15;;;;;;;13.98;9.38;;;14.70;99.90;;;;;;5011294;28;20635;-66
2023/08/24 02:21:41;;;;;;;14.35;9.52;;;14.60;99.90;;;;;;5010098;28;20548;-65
2023/08/24 02:24:07;;;;;;;15.98;10.15;;;14.70;99.90;;;;;;5009917;28;20291;-66
2023/08/24 02:26:32;;;;;;;12.75;8.50;;;14.80;99.90;;;;;;5011471;28;20475;-65
2023/08/24 02:29:00;;;;;;;12.95;8.82;;;14.80;99.90;;;;;;5011937;28;20041;-65
2023/08/24 02:31:25;;;;;;;11.85;8.43;;;14.80;99.90;;;;;;5010101;28;20060;-65
2023/08/24 02:33:51;;;;;;;11.70;8.40;;;14.70;99.90;;;;;;5009931;28;20526;-65
2023/08/24 02:36:17;;;;;;;15.60;7.47;;;14.70;99.90;;;;;;5008361;28;20041;-65
2023/08/24 02:38:42;;;;;;;16.80;9.48;;;14.70;99.90;;;;;;5011186;28;20204;-66
2023/08/24 02:41:10;;;;;;;15.20;8.48;;;14.80;99.90;;;;;;4993800;28;20307;-66
2023/08/24 02:43:36;;;;;;;12.90;8.88;;;14.70;99.90;;;;;;5010505;28;20072;-66
2023/08/24 02:46:03;;;;;;;11.25;7.97;;;14.80;99.90;;;;;;5009796;28;20661;-65
2023/08/24 02:48:30;;;;;;;15.77;8.38;;;14.70;99.90;;;;;;5009362;28;20728;-66
2023/08/24 02:50:58;;;;;;;14.73;8.30;;;14.70;99.90;;;;;;4969353;28;20033;-65
2023/08/24 02:53:23;;;;;;;16.75;9.07;;;14.90;99.90;;;;;;5010710;28;20471;-66
2023/08/24 02:55:49;;;;;;;13.05;8.10;;;14.90;99.90;;;;;;4992792;28;20138;-65
2023/08/24 02:58:15;;;;;;;13.57;9.00;;;14.80;99.90;;;;;;5009437;28;20052;-66
2023/08/24 03:00:40;;;;;;;13.25;7.53;;;15.00;99.90;;;;;;5008822;28;20554;-65
2023/08/24 03:03:06;;;;;;;13.13;7.88;;;14.90;99.90;;;;;;5008869;28;20094;-66
2023/08/24 03:05:32;;;;;;;11.27;7.47;;;15.10;99.90;;;;;;5009364;28;20076;-65
2023/08/24 03:07:58;;;;;;;13.75;8.02;;;15.10;99.90;;;;;;5010906;28;20120;-66
2023/08/24 03:10:24;;;;;;;15.55;8.20;;;15.10;99.90;;;;;;5008799;28;20050;-65
2023/08/24 03:12:50;;;;;;;10.73;8.77;;;15.20;99.90;;;;;;5010840;28;20499;-66
2023/08/24 03:15:16;;;;;;;13.70;10.50;;;15.10;99.90;;;;;;5010579;28;20030;-65
2023/08/24 03:17:42;;;;;;;14.25;9.02;;;15.20;99.90;;;;;;4992818;28;20149;-65
2023/08/24 03:20:09;;;;;;;15.95;8.85;;;15.30;99.90;;;;;;5009121;28;20164;-66
2023/08/24 03:22:36;;;;;;;12.98;9.48;;;15.40;99.90;;;;;;5010676;28;20067;-66
2023/08/24 03:25:02;;;;;;;12.63;9.05;;;15.30;99.90;;;;;;5010089;28;20439;-65
2023/08/24 03:27:28;;;;;;;13.48;8.98;;;15.40;99.90;;;;;;4992391;28;20582;-66
2023/08/24 03:29:54;;;;;;;11.85;8.00;;;15.30;99.90;;;;;;5009284;28;20045;-65
2023/08/24 03:32:19;;;;;;;10.25;7.50;;;15.40;99.90;;;;;;5008363;28;20150;-66
2023/08/24 03:34:45;;;;;;;14.15;8.82;;;15.30;99.90;;;;;;4992125;28;20044;-66
2023/08/24 03:37:11;;;;;;;15.02;9.85;;;15.30;99.90;;;;;;5009323;28;20052;-66
2023/08/24 03:39:38;;;;;;;13.13;9.88;;;15.30;99.90;;;;;;5008760;28;20076;-66
2023/08/24 03:42:04;;;;;;;15.77;10.00;;;15.40;99.90;;;;;;5010263;28;20103;-66
2023/08/24 03:44:29;;;;;;;15.95;10.32;;;15.20;99.90;;;;;;5008851;28;20306;-66
2023/08/24 03:46:55;;;;;;;11.68;8.82;;;15.30;99.90;;;;;;5009973;28;20030;-65
2023/08/24 03:49:21;;;;;;;14.30;9.20;;;15.30;99.90;;;;;;5008683;28;20048;-65
2023/08/24 03:51:46;;;;;;;11.77;9.23;;;15.10;99.90;;;;;;5008432;28;20107;-64
2023/08/24 03:54:12;;;;;;;15.50;9.65;;;15.10;99.90;;;;;;5009809;28;20030;-64
2023/08/24 03:56:38;;;;;;;12.30;9.00;;;15.30;99.90;;;;;;5008168;28;20319;-64
2023/08/24 03:59:04;;;;;;;14.15;8.77;;;15.30;99.90;;;;;;5008876;28;20061;-64
2023/08/24 04:01:30;;;;;;;16.00;9.50;;;15.20;99.90;;;;;;5008315;28;20470;-64
2023/08/24 04:03:57;;;;;;;13.38;9.23;;;15.20;99.90;;;;;;5008506;28;20083;-64
2023/08/24 04:06:23;;;;;;;11.32;9.27;;;15.20;99.90;;;;;;5009010;28;20045;-64
2023/08/24 04:08:49;;;;;;;15.55;10.23;;;15.20;99.90;;;;;;5009919;28;20256;-65
2023/08/24 04:11:15;;;;;;;17.13;9.43;;;15.30;99.90;;;;;;5008835;28;20053;-65
2023/08/24 04:13:41;;;;;;;15.05;9.10;;;15.20;99.90;;;;;;4992558;28;20037;-65
2023/08/24 04:16:06;;;;;;;14.38;9.18;;;15.40;99.90;;;;;;5009993;28;20427;-65
2023/08/24 04:18:32;;;;;;;13.85;10.15;;;15.30;99.90;;;;;;5008777;28;20061;-65
2023/08/24 04:20:58;;;;;;;13.93;9.35;;;15.30;99.90;;;;;;5008119;28;20208;-65
2023/08/24 04:23:28;;;;;;;14.23;10.00;;;15.40;99.90;;;;;;5008259;28;20212;-65
2023/08/24 04:25:54;;;;;;;14.18;9.07;;;15.50;99.90;;;;;;4983248;28;20038;-65
2023/08/24 04:28:20;;;;;;;15.15;10.32;;;15.30;99.90;;;;;;5012723;28;20443;-65
2023/08/24 04:30:53;;;;;;;18.38;10.68;;;15.40;99.90;;;;;;4994746;28;20045;-65
2023/08/24 04:33:19;;;;;;;17.65;10.60;;;15.40;99.90;;;;;;5011134;28;20259;-65
2023/08/24 04:35:49;;;;;;;19.02;10.90;;;15.40;99.90;;;;;;4988706;28;20042;-65
2023/08/24 04:38:16;;;;;;;13.02;10.07;;;15.30;99.90;;;;;;5011564;28;20426;-65
2023/08/24 04:41:00;;;;;;;22.63;12.48;;;15.40;99.90;;;;;;5012383;28;20049;-64
2023/08/24 04:43:27;;;;;;;16.98;11.82;;;15.30;99.90;;;;;;5011766;28;20592;-65
2023/08/24 04:45:54;;;;;;;15.30;11.50;;;15.30;99.90;;;;;;4995668;28;20120;-64
2023/08/24 04:48:26;;;;;;;17.70;12.05;;;15.30;99.90;;;;;;5011309;28;20164;-64
2023/08/24 04:50:56;;;;;;;18.20;13.60;;;15.40;99.90;;;;;;5014355;28;20081;-64
2023/08/24 04:53:21;;;;;;;17.92;13.05;;;15.10;99.90;;;;;;5011795;28;20041;-66
2023/08/24 04:55:47;;;;;;;15.00;11.80;;;15.30;99.90;;;;;;5011571;28;20166;-66
2023/08/24 04:58:13;;;;;;;17.67;13.18;;;15.10;99.90;;;;;;5013055;28;20041;-65
2023/08/24 05:00:39;;;;;;;21.17;13.32;;;15.20;99.90;;;;;;5011275;28;20290;-65
2023/08/24 05:03:06;;;;;;;20.73;14.13;;;15.20;99.90;;;;;;5012032;28;20053;-66
2023/08/24 05:05:33;;;;;;;21.27;14.40;;;15.20;99.90;;;;;;5011602;28;20056;-65
2023/08/24 05:07:59;;;;;;;23.27;14.27;;;15.00;99.90;;;;;;5010598;28;20057;-66
2023/08/24 05:10:25;;;;;;;23.45;14.27;;;15.10;99.90;;;;;;5011320;28;20589;-65
2023/08/24 05:12:51;;;;;;;24.00;14.65;;;15.20;99.90;;;;;;5010924;28;20231;-65
2023/08/24 05:15:17;;;;;;;22.35;15.55;;;15.30;99.90;;;;;;5012879;28;20637;-64
2023/08/24 05:17:43;;;;;;;19.52;14.60;;;15.20;99.90;;;;;;4994749;28;20514;-65
2023/08/24 05:20:12;;;;;;;23.63;16.75;;;15.20;99.90;;;;;;5011244;28;20088;-64
2023/08/24 05:22:38;;;;;;;21.80;14.65;;;15.40;99.90;;;;;;5010958;28;20046;-65
2023/08/24 05:25:07;;;;;;;17.40;13.75;;;15.50;99.90;;;;;;5010562;28;20037;-64
2023/08/24 05:27:33;;;;;;;15.82;14.13;;;15.60;99.90;;;;;;5012367;28;20049;-65
2023/08/24 05:29:58;;;;;;;21.08;14.18;;;15.60;99.90;;;;;;5009818;28;20052;-64
2023/08/24 05:32:24;;;;;;;18.42;15.10;;;15.50;99.90;;;;;;5013504;28;20562;-64
2023/08/24 05:34:50;;;;;;;24.63;15.48;;;15.50;99.90;;;;;;5010769;28;20085;-65
2023/08/24 05:37:16;;;;;;;19.95;14.18;;;15.70;99.90;;;;;;5008838;28;20700;-65
2023/08/24 05:39:42;;;;;;;20.60;12.88;;;16.00;99.90;;;;;;5008502;28;20177;-65
2023/08/24 05:42:09;;;;;;;13.25;10.98;;;16.10;99.90;;;;;;5010763;28;20642;-65
2023/08/24 05:44:34;;;;;;;19.65;13.00;;;16.60;99.90;;;;;;5010899;28;20048;-65
2023/08/24 05:47:00;;;;;;;17.10;12.27;;;16.70;99.90;;;;;;5011506;28;20034;-65
2023/08/24 05:49:26;;;;;;;15.40;9.63;;;17.00;99.90;;;;;;5012338;28;20391;-64
2023/08/24 05:51:52;;;;;;;17.23;9.02;;;17.20;99.90;;;;;;5010055;28;20037;-65
2023/08/24 05:54:18;;;;;;;15.20;9.80;;;17.60;99.90;;;;;;5010391;28;20094;-64
2023/08/24 05:56:45;;;;;;;14.57;8.55;;;17.60;99.90;;;;;;5010861;28;20056;-64
2023/08/24 05:59:11;;;;;;;13.32;7.68;;;18.10;99.90;;;;;;5000055;28;20073;-64
2023/08/24 06:01:41;;;;;;;11.00;7.25;;;18.50;99.90;;;;;;4992378;28;20050;-64
2023/08/24 06:04:09;;;;;;;15.00;7.75;;;18.50;99.90;;;;;;4974284;28;20145;-64
2023/08/24 06:06:35;;;;;;;10.32;6.65;;;18.40;99.90;;;;;;4992007;28;20476;-64
2023/08/24 06:09:05;;;;;;;12.27;5.93;;;18.50;84.80;;;;;;4973177;28;20046;-65
2023/08/24 06:11:32;;;;;;;14.35;6.10;;;18.60;99.90;;;;;;4989962;28;20576;-64
2023/08/24 06:13:58;;;;;;;9.27;4.90;;;18.40;99.90;;;;;;4991360;28;20108;-64
2023/08/24 06:16:23;;;;;;;15.50;4.65;;;18.20;99.90;;;;;;4992630;28;20041;-65
2023/08/24 06:18:49;;;;;;;7.80;4.38;;;18.20;99.90;;;;;;4990565;28;20034;-65
2023/08/24 06:21:16;;;;;;;9.93;4.57;;;18.00;99.90;;;;;;4973504;28;20037;-65
2023/08/24 06:23:41;;;;;;;8.57;4.10;;;18.20;99.90;;;;;;4990184;28;20038;-65
2023/08/24 06:26:07;;;;;;;6.30;4.05;;;18.50;99.90;;;;;;4974869;28;20053;-65
2023/08/24 06:28:33;;;;;;;7.78;3.60;;;18.90;1.00;;;;;;4975455;28;20459;-65
2023/08/24 06:31:00;;;;;;;7.65;3.47;;;19.20;1.00;;;;;;4975633;28;20289;-66
2023/08/24 06:33:32;;;;;;;6.72;3.38;;;19.20;99.90;;;;;;4992636;28;20037;-65
2023/08/24 06:35:58;;;;;;;8.13;3.45;;;19.20;99.90;;;;;;4991409;28;20041;-65
2023/08/24 06:38:25;;;;;;;7.20;3.17;;;19.10;99.90;;;;;;4992685;28;20084;-66
2023/08/24 06:40:51;;;;;;;7.13;2.72;;;19.10;99.90;;;;;;4991192;28;20064;-65
2023/08/24 06:43:17;;;;;;;5.25;2.20;;;19.30;99.90;;;;;;4990060;28;20472;-65
2023/08/24 06:45:44;;;;;;;7.43;2.78;;;19.40;99.90;;;;;;4990857;28;20229;-65
2023/08/24 06:48:10;;;;;;;6.60;1.98;;;19.60;99.90;;;;;;4995788;28;20416;-65
2023/08/24 06:50:36;;;;;;;5.10;2.30;;;19.90;99.90;;;;;;4972624;28;20238;-65
2023/08/24 06:53:03;;;;;;;4.50;2.00;;;20.20;51.40;;;;;;4990875;28;20048;-64
2023/08/24 06:55:29;;;;;;;4.53;1.67;;;20.40;1.00;;;;;;4990735;28;20045;-65
2023/08/24 06:57:55;;;;;;;6.70;2.40;;;20.60;1.00;;;;;;4991388;28;20531;-64
2023/08/24 07:00:21;;;;;;;9.45;1.88;;;20.80;99.90;;;;;;5009138;28;20059;-65
2023/08/24 07:02:47;;;;;;;5.68;1.40;;;21.00;99.90;;;;;;5030093;28;20048;-65
2023/08/24 07:05:14;;;;;;;5.88;1.20;;;21.20;99.90;;;;;;5030662;28;20240;-65
2023/08/24 07:07:43;;;;;;;4.05;1.02;;;21.40;1.00;;;;;;5011574;28;20132;-65
2023/08/24 07:10:09;;;;;;;5.43;0.75;;;21.50;99.90;;;;;;5013082;28;20045;-65
2023/08/24 07:12:35;;;;;;;4.50;0.77;;;21.70;99.90;;;;;;4998060;28;20036;-65
2023/08/24 07:15:01;;;;;;;5.35;0.82;;;21.80;99.90;;;;;;5033012;28;20037;-65
2023/08/24 07:17:27;;;;;;;6.65;1.00;;;21.90;99.90;;;;;;5034213;28;20045;-65
2023/08/24 07:19:52;;;;;;;4.88;1.02;;;22.10;1.00;;;;;;5015899;28;20037;-64
2023/08/24 07:22:19;;;;;;;5.32;1.17;;;22.20;1.00;;;;;;4999499;28;20182;-65
2023/08/24 07:24:45;;;;;;;3.67;1.30;;;22.20;99.90;;;;;;5013901;28;20088;-65
2023/08/24 07:27:26;;;;;;;4.57;1.50;;;22.40;99.90;;;;;;5012700;28;20610;-65
2023/08/24 07:29:51;;;;;;;4.38;1.52;;;22.60;99.90;;;;;;5011534;28;20098;-64
2023/08/24 07:32:17;;;;;;;6.28;1.45;;;22.30;99.90;;;;;;5029835;28;20489;-65
2023/08/24 07:34:43;;;;;;;5.65;1.70;;;21.90;99.90;;;;;;5012025;28;20063;-65
2023/08/24 07:37:08;;;;;;;5.00;2.10;;;21.50;99.90;;;;;;5011413;28;20340;-66
2023/08/24 07:39:34;;;;;;;5.03;2.03;;;21.30;99.90;;;;;;5012015;28;20048;-65
2023/08/24 07:42:00;;;;;;;5.80;1.75;;;21.20;99.90;;;;;;5029980;28;20036;-66
2023/08/24 07:44:26;;;;;;;5.40;2.20;;;21.50;99.90;;;;;;5011708;28;20235;-65
2023/08/24 07:46:52;;;;;;;6.47;2.45;;;21.90;99.90;;;;;;5029592;28;20074;-66
2023/08/24 07:49:17;;;;;;;5.15;2.78;;;22.10;1.00;;;;;;5011493;28;20150;-66
2023/08/24 07:51:43;;;;;;;6.40;2.72;;;22.50;1.00;;;;;;4987501;28;20037;-66
2023/08/24 07:54:09;;;;;;;5.35;2.95;;;22.80;99.90;;;;;;5010443;28;20060;-66
2023/08/24 07:56:36;;;;;;;5.50;3.00;;;22.80;99.90;;;;;;5013515;28;20041;-66
2023/08/24 07:59:02;;;;;;;6.18;3.35;;;23.00;99.90;;;;;;5012703;28;20049;-65
2023/08/24 08:01:27;;;;;;;5.90;3.13;;;23.10;99.90;;;;;;5014560;28;20052;-65
2023/08/24 08:03:54;;;;;;;7.20;3.63;;;23.00;99.90;;;;;;4999079;28;20764;-66
2023/08/24 08:06:21;;;;;;;5.03;2.63;;;22.80;99.30;;;;;;5020324;28;20159;-66
2023/08/24 08:08:50;;;;;;;5.30;2.90;;;22.90;99.90;;;;;;5035348;28;20033;-66
2023/08/24 08:11:15;;;;;;;6.95;2.95;;;22.90;99.90;;;;;;5016940;28;20463;-67
2023/08/24 08:13:41;;;;;;;3.47;2.45;;;23.30;99.90;;;;;;4974592;28;20531;-65
2023/08/24 08:16:07;;;;;;;7.95;3.50;;;23.60;99.90;;;;;;4998745;28;20049;-66
2023/08/24 08:18:34;;;;;;;9.18;3.97;;;23.20;25.90;;;;;;5015459;28;20148;-65
2023/08/24 08:21:00;;;;;;;6.53;3.75;;;22.90;30.00;;;;;;5032007;28;20131;-65
2023/08/24 08:23:26;;;;;;;6.72;3.65;;;22.60;62.20;;;;;;4998722;28;20049;-66
2023/08/24 08:25:51;;;;;;;4.75;3.65;;;22.40;57.30;;;;;;5015447;28;20304;-66
2023/08/24 08:28:18;;;;;;;5.95;4.13;;;22.30;27.70;;;;;;5015024;28;20043;-65
2023/08/24 08:30:44;;;;;;;7.18;4.88;;;22.20;29.70;;;;;;5015500;28;20090;-65
2023/08/24 08:33:10;;;;;;;7.25;4.43;;;22.30;24.80;;;;;;5014128;28;20118;-66
2023/08/24 08:35:38;;;;;;;6.65;4.50;;;22.50;32.40;;;;;;4998714;28;20520;-66
2023/08/24 08:38:07;;;;;;;7.90;4.70;;;23.00;48.40;;;;;;4999249;28;20041;-66
2023/08/24 08:40:37;;;;;;;6.43;4.43;;;23.20;1.50;;;;;;5015509;28;20036;-66
2023/08/24 08:43:03;;;;;;;7.72;3.92;;;23.00;1.00;;;;;;5014967;28;20424;-66
2023/08/24 08:45:29;;;;;;;6.68;4.03;;;22.80;1.00;;;;;;4998764;28;20094;-66
2023/08/24 08:47:59;;;;;;;4.78;3.20;;;22.70;32.70;;;;;;4998580;28;20032;-66
2023/08/24 08:50:25;;;;;;;4.40;3.35;;;23.00;1.00;;;;;;5015530;28;20083;-67
2023/08/24 08:52:51;;;;;;;4.38;3.55;;;23.40;30.70;;;;;;5033014;28;20045;-66
2023/08/24 08:55:18;;;;;;;5.00;3.20;;;23.80;16.80;;;;;;5033171;28;20044;-67
2023/08/24 08:57:48;;;;;;;6.35;3.40;;;24.00;66.30;;;;;;5032790;28;20653;-67
2023/08/24 09:00:17;;;;;;;4.55;2.65;;;24.20;74.00;;;;;;5032443;28;20348;-66
2023/08/24 09:02:45;;;;;;;5.22;3.08;;;24.50;86.40;;;;;;5014818;28;20130;-67
2023/08/24 09:05:12;;;;;;;5.22;2.90;;;24.70;60.80;;;;;;5015313;28;20107;-67
2023/08/24 09:07:41;;;;;;;4.38;3.08;;;24.50;64.10;;;;;;5013769;28;20041;-66
2023/08/24 09:10:08;;;;;;;5.00;3.00;;;24.50;82.70;;;;;;5032858;28;20495;-67
2023/08/24 09:12:34;;;;;;;6.38;3.00;;;24.60;67.00;;;;;;5002274;28;20097;-65
2023/08/24 09:15:06;;;;;;;5.28;3.00;;;24.50;73.40;;;;;;4997760;28;20037;-65
2023/08/24 09:17:33;;;;;;;5.20;3.10;;;24.70;74.40;;;;;;4997542;28;20256;-65
2023/08/24 09:20:06;;;;;;;4.45;3.10;;;25.10;56.70;;;;;;5033184;28;20671;-65
2023/08/24 09:22:36;;;;;;;5.90;3.45;;;25.40;42.60;;;;;;5032185;28;20045;-65
2023/08/24 09:25:04;;;;;;;4.15;2.47;;;25.80;28.50;;;;;;5014178;28;20329;-64
2023/08/24 09:27:30;;;;;;;6.95;3.60;;;25.70;24.80;;;;;;5033094;28;20140;-66
2023/08/24 09:29:56;;;;;;;5.10;2.95;;;25.90;17.80;;;;;;5014329;28;20037;-65
2023/08/24 09:32:27;;;;;;;5.00;3.00;;;26.10;11.60;;;;;;5014209;28;20158;-65
2023/08/24 09:34:54;;;;;;;11.50;3.33;;;26.10;8.00;;;;;;5032167;28;20911;-65
2023/08/24 09:37:20;;;;;;;5.18;3.10;;;26.10;8.20;;;;;;4983722;28;20049;-65
2023/08/24 09:39:46;;;;;;;6.60;3.45;;;25.80;1.00;;;;;;4997950;28;20044;-65
2023/08/24 09:42:13;;;;;;;6.20;3.17;;;26.30;1.00;;;;;;5014850;28;20193;-65
2023/08/24 09:44:45;;;;;;;8.98;3.90;;;26.60;1.00;;;;;;4997531;28;20048;-65
2023/08/24 09:47:11;;;;;;;4.95;3.40;;;26.70;1.00;;;;;;5013716;28;20049;-66
2023/08/24 09:49:37;;;;;;;7.53;3.25;;;26.60;1.00;;;;;;5013237;28;20125;-66
2023/08/24 09:52:07;;;;;;;4.10;2.85;;;26.30;1.00;;;;;;5014254;28;20057;-66
2023/08/24 09:54:37;;;;;;;6.57;3.70;;;26.10;1.00;;;;;;5014342;28;20069;-66
2023/08/24 09:57:06;;;;;;;7.03;3.70;;;25.80;1.00;;;;;;5014535;28;20156;-65
2023/08/24 09:59:34;;;;;;;6.07;3.40;;;25.60;1.00;;;;;;5031641;28;20057;-66
2023/08/24 10:02:01;;;;;;;7.00;3.80;;;25.10;1.00;;;;;;5031777;28;20048;-66
2023/08/24 10:04:34;;;;;;;7.32;3.97;;;24.70;8.40;;;;;;5013487;28;20045;-65
2023/08/24 10:07:07;;;;;;;6.70;4.13;;;24.60;20.30;;;;;;5013879;28;20049;-66
2023/08/24 10:09:47;;;;;;;7.93;4.28;;;24.40;25.50;;;;;;4996233;28;20071;-65
2023/08/24 10:12:14;;;;;;;8.15;3.85;;;24.50;20.10;;;;;;5012890;28;20044;-66
2023/08/24 10:14:58;;;;;;;7.90;4.57;;;24.40;15.00;;;;;;5032355;28;20300;-66
2023/08/24 10:17:24;;;;;;;6.55;4.63;;;24.30;25.30;;;;;;5013300;28;20173;-65
2023/08/24 10:19:52;;;;;;;7.95;4.60;;;24.20;47.30;;;;;;5013771;28;20040;-65
2023/08/24 10:22:20;;;;;;;7.43;4.03;;;24.10;51.30;;;;;;5015049;28;20376;-65
2023/08/24 10:24:47;;;;;;;8.85;4.28;;;24.00;58.90;;;;;;5019132;28;20538;-65
2023/08/24 10:27:14;;;;;;;9.38;5.10;;;24.00;45.20;;;;;;5032775;28;20037;-66
2023/08/24 10:29:40;;;;;;;6.78;4.50;;;24.00;42.40;;;;;;5025428;28;20122;-66
2023/08/24 10:32:08;;;;;;;6.85;3.97;;;24.00;44.00;;;;;;5013579;28;20834;-65
2023/08/24 10:34:33;;;;;;;5.80;4.07;;;24.00;38.50;;;;;;5014406;28;20040;-66
2023/08/24 10:37:12;;;;;;;7.82;3.95;;;24.00;32.00;;;;;;5029814;28;20137;-66
2023/08/24 10:39:45;;;;;;;7.68;4.10;;;24.10;31.00;;;;;;5012143;28;20103;-66
2023/08/24 10:42:12;;;;;;;7.57;4.05;;;24.10;28.00;;;;;;5030617;28;20400;-66
2023/08/24 10:44:39;;;;;;;8.75;4.32;;;24.20;21.50;;;;;;4989533;28;20327;-66
2023/08/24 10:47:12;;;;;;;7.10;3.85;;;24.00;22.30;;;;;;5012184;28;20041;-65
2023/08/24 10:49:37;;;;;;;8.75;5.03;;;24.00;24.60;;;;;;5030211;28;20051;-66
2023/08/24 10:52:23;;;;;;;8.93;4.43;;;24.00;33.80;;;;;;5030684;28;20041;-65
2023/08/24 10:54:50;;;;;;;6.90;5.10;;;23.90;45.20;;;;;;5011788;28;20484;-65
2023/08/24 10:57:20;;;;;;;8.73;5.65;;;23.90;39.30;;;;;;5028813;28;20488;-65
2023/08/24 11:00:08;;;;;;;7.60;6.20;;;23.80;40.40;;;;;;4998676;28;20114;-64
2023/08/24 11:02:43;;;;;;;10.88;6.00;;;23.70;51.10;;;;;;5028766;28;20238;-65
2023/08/24 11:05:27;;;;;;;9.40;5.60;;;23.60;58.40;;;;;;5007480;28;20423;-65
2023/08/24 11:07:53;;;;;;;9.82;5.95;;;23.40;74.60;;;;;;5010095;28;20043;-65
2023/08/24 11:10:21;;;;;;;7.88;6.82;;;23.30;85.80;;;;;;5011033;28;20403;-65
2023/08/24 11:13:11;;;;;;;10.40;6.28;;;23.30;79.90;;;;;;5011238;28;20053;-64
2023/08/24 11:15:47;;;;;;;11.77;6.47;;;23.20;91.10;;;;;;5029549;28;20399;-65
2023/08/24 11:18:13;;;;;;;9.70;6.50;;;23.20;88.80;;;;;;5029263;28;20458;-66
2023/08/24 11:20:47;;;;;;;10.32;6.25;;;23.10;86.70;;;;;;5010899;28;20127;-65
2023/08/24 11:23:15;;;;;;;13.77;6.47;;;23.10;86.80;;;;;;5029347;28;20269;-66
2023/08/24 11:25:41;;;;;;;10.50;6.32;;;23.10;87.50;;;;;;5029235;28;20052;-65
2023/08/24 11:28:07;;;;;;;8.48;6.13;;;23.10;90.70;;;;;;5011475;28;20080;-65
2023/08/24 11:30:34;;;;;;;8.82;6.45;;;23.10;91.40;;;;;;5028760;28;20394;-66
2023/08/24 11:33:02;;;;;;;11.10;6.50;;;23.10;93.80;;;;;;5028963;28;20045;-66
2023/08/24 11:35:27;;;;;;;12.98;6.75;;;23.10;96.30;;;;;;5010453;28;20041;-67
2023/08/24 11:37:54;;;;;;;10.77;6.30;;;23.10;98.20;;;;;;5010046;28;20390;-66
2023/08/24 11:40:26;;;;;;;10.50;6.55;;;23.20;99.90;;;;;;4998913;28;20037;-66
2023/08/24 11:42:54;;;;;;;10.65;6.32;;;23.20;99.90;;;;;;5011651;28;20176;-66
2023/08/24 11:45:20;;;;;;;9.50;6.45;;;23.30;99.90;;;;;;5027660;28;20040;-65
2023/08/24 11:47:46;;;;;;;9.30;6.43;;;23.40;97.10;;;;;;5000943;28;20200;-66
2023/08/24 11:50:12;;;;;;;9.05;6.53;;;23.50;95.10;;;;;;4992055;28;20494;-65
2023/08/24 11:52:41;;;;;;;12.52;6.13;;;23.50;94.80;;;;;;5029513;28;20440;-66
2023/08/24 11:55:08;;;;;;;9.60;5.88;;;23.60;96.40;;;;;;5010849;28;20400;-66
2023/08/24 11:57:34;;;;;;;10.43;6.35;;;23.70;94.80;;;;;;5010199;28;20503;-66
2023/08/24 12:00:01;;;;;;;12.15;6.78;;;23.70;92.80;;;;;;5008359;28;20337;-66
2023/08/24 12:02:28;;;;;;;10.52;6.30;;;23.80;92.10;;;;;;5028046;28;20375;-65
2023/08/24 12:04:55;;;;;;;9.48;6.38;;;23.90;91.80;;;;;;4993748;28;20059;-66
2023/08/24 12:07:21;;;;;;;9.35;6.18;;;23.90;88.40;;;;;;4994562;28;20166;-66
2023/08/24 12:09:47;;;;;;;11.20;6.18;;;24.00;83.00;;;;;;5010959;28;20049;-65
2023/08/24 12:12:17;;;;;;;9.98;6.00;;;24.00;78.40;;;;;;5011070;28;20390;-65
2023/08/24 12:14:45;;;;;;;12.00;6.38;;;24.10;78.20;;;;;;5028818;28;20261;-66
2023/08/24 12:17:11;;;;;;;7.45;5.72;;;24.30;69.70;;;;;;4994307;28;20037;-65
2023/08/24 12:19:37;;;;;;;8.10;5.28;;;24.40;72.30;;;;;;5028589;28;20401;-66
2023/08/24 12:22:03;;;;;;;9.48;5.30;;;24.40;63.10;;;;;;5028706;28;20080;-66
2023/08/24 12:24:29;;;;;;;7.15;4.80;;;24.50;55.60;;;;;;5028000;28;20132;-68
2023/08/24 12:26:59;;;;;;;9.50;4.97;;;24.70;57.70;;;;;;4993522;28;20045;-66
2023/08/24 12:29:25;;;;;;;10.35;5.15;;;24.70;58.60;;;;;;5009991;28;20201;-67
2023/08/24 12:31:50;;;;;;;10.27;4.88;;;24.70;51.30;;;;;;4992964;28;21263;-67
2023/08/24 12:34:16;;;;;;;11.98;4.50;;;24.80;48.00;;;;;;5010477;28;20506;-66
2023/08/24 12:36:43;;;;;;;9.10;5.07;;;24.90;49.00;;;;;;4992280;28;20037;-66
2023/08/24 12:39:12;;;;;;;8.82;5.28;;;24.90;42.20;;;;;;5008814;28;20091;-66
2023/08/24 12:41:38;;;;;;;9.43;4.95;;;24.80;40.60;;;;;;5027893;28;20456;-66